Centerville, Utah
Current Conditions -  °F | °C
As of 12:53 AM on Friday 28 Nov 2014 (Local Time) from KSLC Reporting Station
Broken Clouds Broken Clouds  
Wind Chill: 43°   Ceiling: 20000
Heat Index: 47°   Visibility: 10mi
Dew Point: 25°   Wind: 9mph
Humidity: 42%   Direction: 120°ESE
Pressure: 30.09"   Gusts: NA
Location:  40.92°N, 111.87°W
Report Text: KSLC 280753Z 12008KT 10SM FEW150 BKN200 08/M04 A3009 RMK AO2 SLP168 T00831039
Loading
Personal Weather Stations






























Interactive Weather Map New forecast layout! Learn more

10-Day Weather Forecast

Advertisements
Track Severe Weather on mobile